createdAt,value
2018-06-02T00:00:45.387Z,7.13
2018-06-02T00:03:14.356Z,6.53
2018-06-02T00:05:43.160Z,5.80
2018-06-02T00:08:12.854Z,5.60
2018-06-02T00:10:41.607Z,6.73
2018-06-02T00:13:10.412Z,6.37
2018-06-02T00:15:39.681Z,6.07
2018-06-02T00:18:09.567Z,6.30
2018-06-02T00:20:38.180Z,6.80
2018-06-02T00:23:06.975Z,6.47
2018-06-02T00:25:36.474Z,6.40
2018-06-02T00:28:06.899Z,6.83
2018-06-02T00:30:36.244Z,6.80
2018-06-02T00:33:05.858Z,7.00
2018-06-02T00:35:34.829Z,7.27
2018-06-02T00:38:03.929Z,5.63
2018-06-02T00:40:32.702Z,6.50
2018-06-02T00:43:01.459Z,7.13
2018-06-02T00:45:30.268Z,6.97
2018-06-02T00:47:59.183Z,6.30
2018-06-02T00:50:27.994Z,6.20
2018-06-02T00:52:56.753Z,6.17
2018-06-02T00:55:25.919Z,5.87
2018-06-02T00:57:55.218Z,7.00
2018-06-02T01:00:25.053Z,7.23
2018-06-02T01:02:54.467Z,6.83
2018-06-02T01:05:23.934Z,6.37
2018-06-02T01:07:52.735Z,6.63
2018-06-02T01:10:21.645Z,6.00
2018-06-02T01:12:50.473Z,6.47
2018-06-02T01:15:20.047Z,6.70
2018-06-02T01:17:49.506Z,6.97
2018-06-02T01:20:19.353Z,7.07
2018-06-02T01:22:48.347Z,6.63
2018-06-02T01:25:18.124Z,7.10
2018-06-02T01:27:47.774Z,7.10
2018-06-02T01:30:17.242Z,6.57
2018-06-02T01:32:45.942Z,6.27
2018-06-02T01:35:14.742Z,6.13
2018-06-02T01:37:43.568Z,6.70
2018-06-02T01:40:12.305Z,7.10
2018-06-02T01:42:41.112Z,6.80
2018-06-02T01:45:09.891Z,6.87
2018-06-02T01:47:38.612Z,7.17
2018-06-02T01:50:07.445Z,6.90
2018-06-02T01:52:36.419Z,6.57
2018-06-02T01:55:06.267Z,6.17
2018-06-02T01:57:35.543Z,6.77
2018-06-02T02:00:04.921Z,6.10
2018-06-02T02:02:33.611Z,7.00
2018-06-02T02:05:02.429Z,5.93
2018-06-02T02:07:31.416Z,7.03
2018-06-02T02:10:00.976Z,6.43
2018-06-02T02:12:31.213Z,6.17
2018-06-02T02:14:59.768Z,5.80
2018-06-02T02:17:28.516Z,6.77
2018-06-02T02:19:58.030Z,6.70
2018-06-02T02:22:27.529Z,7.73
2018-06-02T02:24:57.217Z,7.80
2018-06-02T02:27:26.904Z,7.37
2018-06-02T02:29:56.571Z,7.13
2018-06-02T02:32:25.383Z,7.60
2018-06-02T02:34:54.185Z,7.20
2018-06-02T02:37:23.101Z,7.50
2018-06-02T02:39:52.009Z,6.70
2018-06-02T02:42:20.735Z,7.47
2018-06-02T02:44:49.502Z,6.97
2018-06-02T02:47:18.940Z,7.10
2018-06-02T02:49:47.720Z,7.10
2018-06-02T02:52:17.221Z,7.07
2018-06-02T02:54:46.791Z,5.83
2018-06-02T02:57:16.923Z,6.80
2018-06-02T02:59:46.589Z,7.37
2018-06-02T03:02:15.251Z,7.23
2018-06-02T03:04:44.106Z,7.03
2018-06-02T03:07:13.072Z,6.70
2018-06-02T03:09:42.539Z,6.50
2018-06-02T03:12:11.359Z,5.97
2018-06-02T03:14:39.963Z,6.97
2018-06-02T03:17:08.769Z,6.13
2018-06-02T03:19:37.585Z,7.00
2018-06-02T03:22:06.552Z,6.90
2018-06-02T03:24:35.793Z,7.20
2018-06-02T03:27:05.935Z,7.60
2018-06-02T03:29:35.281Z,6.83
2018-06-02T03:32:04.034Z,6.57
2018-06-02T03:34:32.840Z,6.70
2018-06-02T03:37:01.542Z,6.20
2018-06-02T03:39:30.313Z,5.70
2018-06-02T03:41:59.027Z,7.13
2018-06-02T03:44:27.611Z,6.30
2018-06-02T03:46:57.057Z,6.30
2018-06-02T03:49:25.849Z,6.07
2018-06-02T03:51:54.699Z,6.10
2018-06-02T03:54:24.249Z,6.47
2018-06-02T03:56:53.929Z,5.97
2018-06-02T03:59:23.060Z,6.60
2018-06-02T04:01:51.748Z,5.93
2018-06-02T04:04:21.040Z,6.07
2018-06-02T04:06:50.389Z,5.67
2018-06-02T04:09:19.147Z,4.70
2018-06-02T04:11:47.908Z,5.43
2018-06-02T04:14:17.643Z,5.33
2018-06-02T04:16:46.277Z,5.07
2018-06-02T04:19:15.044Z,5.30
2018-06-02T04:21:44.593Z,5.30
2018-06-02T04:24:14.076Z,6.37
2018-06-02T04:26:44.154Z,5.77
2018-06-02T04:29:12.975Z,6.40
2018-06-02T04:31:41.753Z,6.87
2018-06-02T04:34:11.791Z,8.30
2018-06-02T04:36:41.146Z,7.93
2018-06-02T04:39:10.064Z,8.07
2018-06-02T04:41:38.815Z,7.87
2018-06-02T04:44:07.568Z,7.87
2018-06-02T04:46:36.246Z,7.17
2018-06-02T04:49:05.803Z,6.63
2018-06-02T04:51:34.512Z,7.23
2018-06-02T04:54:04.265Z,7.57
2018-06-02T04:56:33.454Z,6.60
2018-06-02T04:59:02.380Z,6.43
2018-06-02T05:01:30.913Z,6.00
2018-06-02T05:03:59.445Z,6.43
2018-06-02T05:06:29.112Z,6.87
2018-06-02T05:08:57.869Z,7.23
2018-06-02T05:11:26.583Z,6.73
2018-06-02T05:13:55.339Z,6.60
2018-06-02T05:16:24.969Z,6.63
2018-06-02T05:18:53.673Z,7.03
2018-06-02T05:21:22.934Z,7.13
2018-06-02T05:23:52.016Z,7.10
2018-06-02T05:26:21.472Z,6.20
2018-06-02T05:28:50.439Z,6.37
2018-06-02T05:31:20.387Z,8.80
2018-06-02T05:33:49.115Z,6.40
2018-06-02T05:36:18.001Z,6.40
2018-06-02T05:38:46.776Z,6.90
2018-06-02T05:41:16.292Z,6.43
2018-06-02T05:43:45.158Z,6.77
2018-06-02T05:46:14.988Z,5.23
2018-06-02T05:48:43.825Z,5.60
2018-06-02T05:51:13.529Z,5.70
2018-06-02T05:53:42.960Z,5.40
2018-06-02T05:56:12.512Z,5.33
2018-06-02T05:58:42.443Z,5.47
2018-06-02T06:01:12.029Z,5.33
2018-06-02T06:03:40.846Z,5.03
2018-06-02T06:06:09.737Z,5.33
2018-06-02T06:08:38.682Z,5.97
2018-06-02T06:11:09.790Z,5.80
2018-06-02T06:13:38.723Z,5.00
2018-06-02T06:16:08.690Z,4.77
2018-06-02T06:18:37.803Z,4.47
2018-06-02T06:21:07.791Z,4.03
2018-06-02T06:23:37.393Z,3.90
2018-06-02T06:26:06.184Z,3.63
2018-06-02T06:28:35.196Z,3.93
2018-06-02T06:31:04.006Z,3.67
2018-06-02T06:33:33.329Z,3.70
2018-06-02T06:36:02.025Z,3.63
2018-06-02T06:38:30.962Z,3.40
2018-06-02T06:40:59.764Z,3.40
2018-06-02T06:43:29.952Z,3.67
2018-06-02T06:45:59.730Z,3.43
2018-06-02T06:48:29.877Z,3.73
2018-06-02T06:50:59.905Z,3.20
2018-06-02T06:53:29.114Z,3.20
2018-06-02T06:55:58.046Z,3.93
2018-06-02T06:58:26.703Z,3.70
2018-06-02T07:00:55.710Z,3.30
2018-06-02T07:03:24.686Z,3.50
2018-06-02T07:05:53.504Z,2.90
2018-06-02T07:08:22.300Z,2.90
2018-06-02T07:10:51.078Z,3.40
2018-06-02T07:13:20.863Z,2.63
2018-06-02T07:15:50.675Z,2.90
2018-06-02T07:18:20.659Z,2.90
2018-06-02T07:20:50.533Z,2.90
2018-06-02T07:23:19.559Z,2.97
2018-06-02T07:25:48.259Z,2.90
2018-06-02T07:28:17.128Z,2.50
2018-06-02T07:30:46.709Z,3.03
2018-06-02T07:33:15.413Z,2.93
2018-06-02T07:35:45.053Z,2.50
2018-06-02T07:38:14.062Z,2.17
2018-06-02T07:40:42.755Z,3.00
2018-06-02T07:43:11.784Z,2.17
2018-06-02T07:45:41.127Z,2.27
2018-06-02T07:48:11.402Z,2.30
2018-06-02T07:50:42.665Z,2.73
2018-06-02T07:53:11.603Z,2.40
2018-06-02T07:55:41.438Z,2.50
2018-06-02T07:58:10.272Z,2.20
2018-06-02T08:00:39.083Z,2.00
2018-06-02T08:03:07.900Z,2.23
2018-06-02T08:05:36.716Z,1.80
2018-06-02T08:08:05.773Z,2.13
2018-06-02T08:10:35.149Z,2.07
2018-06-02T08:13:04.341Z,2.00
2018-06-02T08:15:34.695Z,2.30
2018-06-02T08:18:05.788Z,2.23
2018-06-02T08:20:35.835Z,1.93
2018-06-02T08:23:05.399Z,2.37
2018-06-02T08:25:34.876Z,2.40
2018-06-02T08:28:04.051Z,2.33
2018-06-02T08:30:34.076Z,2.20
2018-06-02T08:33:04.125Z,2.00
2018-06-02T08:35:33.055Z,1.97
2018-06-02T08:38:01.976Z,2.20
2018-06-02T08:40:30.669Z,2.20
2018-06-02T08:42:59.658Z,2.37
2018-06-02T08:45:30.326Z,1.93
2018-06-02T08:47:59.349Z,2.10
2018-06-02T08:50:28.834Z,1.90
2018-06-02T08:52:57.602Z,1.90
2018-06-02T08:55:26.894Z,2.20
2018-06-02T08:57:56.235Z,2.10
2018-06-02T09:00:25.329Z,2.07
2018-06-02T09:02:54.874Z,1.97
2018-06-02T09:05:23.762Z,2.17
2018-06-02T09:07:53.940Z,2.40
2018-06-02T09:10:23.154Z,2.17
2018-06-02T09:12:52.488Z,2.40
2018-06-02T09:15:22.611Z,2.50
2018-06-02T09:17:52.372Z,2.87
2018-06-02T09:20:21.266Z,2.43
2018-06-02T09:22:51.769Z,2.57
2018-06-02T09:25:22.215Z,2.60
2018-06-02T09:27:51.999Z,2.63
2018-06-02T09:30:22.102Z,2.73
2018-06-02T09:32:51.047Z,2.40
2018-06-02T09:35:20.234Z,2.20
2018-06-02T09:37:50.182Z,2.50
2018-06-02T09:40:19.919Z,2.33
2018-06-02T09:42:49.375Z,2.60
2018-06-02T09:45:18.701Z,2.93
2018-06-02T09:47:47.730Z,3.17
2018-06-02T09:50:16.607Z,2.90
2018-06-02T09:52:45.519Z,2.93
2018-06-02T09:55:14.383Z,2.90
2018-06-02T09:57:43.067Z,3.10
2018-06-02T10:00:11.873Z,3.27
2018-06-02T10:02:41.584Z,2.93
2018-06-02T10:05:10.186Z,2.57
2018-06-02T10:07:39.997Z,3.00
2018-06-02T10:10:10.131Z,2.77
2018-06-02T10:12:40.802Z,2.60
2018-06-02T10:15:10.680Z,2.80
2018-06-02T10:17:39.659Z,2.23
2018-06-02T10:20:08.580Z,2.70
2018-06-02T10:22:37.171Z,2.40
2018-06-02T10:25:06.013Z,2.90
2018-06-02T10:27:35.863Z,2.70
2018-06-02T10:30:05.250Z,2.50
2018-06-02T10:32:35.073Z,2.60
2018-06-02T10:35:04.061Z,2.80
2018-06-02T10:37:34.641Z,2.47
2018-06-02T10:40:04.089Z,2.70
2018-06-02T10:42:33.157Z,2.50
2018-06-02T10:45:02.016Z,2.50
2018-06-02T10:47:30.780Z,2.63
2018-06-02T10:49:59.487Z,3.00
2018-06-02T10:52:28.155Z,2.60
2018-06-02T10:54:57.956Z,2.50
2018-06-02T10:57:26.805Z,2.87
2018-06-02T10:59:55.685Z,2.50
2018-06-02T11:02:24.581Z,2.70
2018-06-02T11:04:53.476Z,2.80
2018-06-02T11:07:24.062Z,2.67
2018-06-02T11:09:53.826Z,3.10
2018-06-02T11:12:23.818Z,2.70
2018-06-02T11:14:53.458Z,2.50
2018-06-02T11:17:22.220Z,3.33
2018-06-02T11:19:51.952Z,2.80
2018-06-02T11:22:22.338Z,2.70
2018-06-02T11:24:51.124Z,2.90
2018-06-02T11:27:20.604Z,2.83
2018-06-02T11:29:49.782Z,2.30
2018-06-02T11:32:20.130Z,2.90
2018-06-02T11:34:49.757Z,2.70
2018-06-02T11:37:20.063Z,2.80
2018-06-02T11:39:49.825Z,2.87
2018-06-02T11:42:18.397Z,2.67
2018-06-02T11:44:47.470Z,3.17
2018-06-02T11:47:16.197Z,2.67
2018-06-02T11:49:46.412Z,3.13
2018-06-02T11:52:15.828Z,2.90
2018-06-02T11:54:44.740Z,4.17
2018-06-02T11:57:13.548Z,2.80
2018-06-02T11:59:42.964Z,3.00
2018-06-02T12:02:13.216Z,2.90
2018-06-02T12:04:44.360Z,2.80
2018-06-02T12:07:13.089Z,3.00
2018-06-02T12:09:42.165Z,2.63
2018-06-02T12:12:12.348Z,2.77
2018-06-02T12:14:40.952Z,2.73
2018-06-02T12:17:11.075Z,2.90
2018-06-02T12:19:40.109Z,2.57
2018-06-02T12:22:09.846Z,2.40
2018-06-02T12:24:38.542Z,2.70
2018-06-02T12:27:08.280Z,2.60
2018-06-02T12:29:38.754Z,2.50
2018-06-02T12:32:08.241Z,2.37
2018-06-02T12:34:37.677Z,2.50
2018-06-02T12:37:07.471Z,2.50
2018-06-02T12:39:38.150Z,2.20
2018-06-02T12:42:08.220Z,2.50
2018-06-02T12:44:37.217Z,2.50
2018-06-02T12:47:06.073Z,2.00
2018-06-02T12:49:36.257Z,2.00
2018-06-02T12:52:06.610Z,2.30
2018-06-02T12:54:37.435Z,2.30
2018-06-02T12:57:07.713Z,2.50
2018-06-02T12:59:38.231Z,1.90
2018-06-02T13:02:09.201Z,2.17
2018-06-02T13:04:38.885Z,1.90
2018-06-02T13:07:10.245Z,2.00
2018-06-02T13:09:39.751Z,2.30
2018-06-02T13:12:09.653Z,2.63
2018-06-02T13:14:38.642Z,2.10
2018-06-02T13:17:07.503Z,2.37
2018-06-02T13:19:37.680Z,2.47
2018-06-02T13:22:09.523Z,2.27
2018-06-02T13:24:39.375Z,1.97
2018-06-02T13:27:09.062Z,1.93
2018-06-02T13:29:38.893Z,2.17
2018-06-02T13:32:08.150Z,2.10
2018-06-02T13:34:37.900Z,2.00
2018-06-02T13:37:06.726Z,2.00
2018-06-02T13:39:37.093Z,1.83
2018-06-02T13:42:07.189Z,2.20
2018-06-02T13:44:37.046Z,2.03
2018-06-02T13:47:07.353Z,2.17
2018-06-02T13:49:36.836Z,2.00
2018-06-02T13:52:07.336Z,2.20
2018-06-02T13:54:38.387Z,2.10
2018-06-02T13:57:08.294Z,2.27
2018-06-02T13:59:38.016Z,2.00
2018-06-02T14:02:07.689Z,1.97
2018-06-02T14:04:37.385Z,2.10
2018-06-02T14:07:06.314Z,1.90
2018-06-02T14:09:35.663Z,1.90
2018-06-02T14:12:06.180Z,1.90
2018-06-02T14:14:35.322Z,2.27
2018-06-02T14:17:04.109Z,1.77
2018-06-02T14:19:33.916Z,1.87
2018-06-02T14:22:02.669Z,2.20
2018-06-02T14:24:31.563Z,2.00
2018-06-02T14:27:00.432Z,1.90
2018-06-02T14:29:29.198Z,1.90
2018-06-02T14:31:58.429Z,1.70
2018-06-02T14:34:28.350Z,1.77
2018-06-02T14:36:57.283Z,2.10
2018-06-02T14:39:27.261Z,1.80
2018-06-02T14:41:58.184Z,1.70
2018-06-02T14:44:27.562Z,1.80
2018-06-02T14:46:56.582Z,2.10
2018-06-02T14:49:26.178Z,1.80
2018-06-02T14:51:56.801Z,1.83
2018-06-02T14:54:26.457Z,1.73
2018-06-02T14:56:57.542Z,1.90
2018-06-02T14:59:27.903Z,1.83
2018-06-02T15:01:59.814Z,3.77
2018-06-02T15:04:32.218Z,2.10
2018-06-02T15:07:02.889Z,1.93
2018-06-02T15:09:32.967Z,2.03
2018-06-02T15:12:03.066Z,2.10
2018-06-02T15:14:33.719Z,2.63
2018-06-02T15:17:03.968Z,2.20
2018-06-02T15:19:32.757Z,1.90
2018-06-02T15:22:02.495Z,2.53
2018-06-02T15:24:32.764Z,2.00
2018-06-02T15:27:02.479Z,1.90
2018-06-02T15:29:33.907Z,1.90
2018-06-02T15:32:03.501Z,2.17
2018-06-02T15:34:32.349Z,2.13
2018-06-02T15:37:01.325Z,2.10
2018-06-02T15:39:31.214Z,2.00
2018-06-02T15:42:01.909Z,2.40
2018-06-02T15:44:30.925Z,2.13
2018-06-02T15:46:59.720Z,2.40
2018-06-02T15:49:28.540Z,2.10
2018-06-02T15:51:58.076Z,2.57
2018-06-02T15:54:28.047Z,2.20
2018-06-02T15:56:57.815Z,2.40
2018-06-02T15:59:26.616Z,2.50
2018-06-02T16:01:56.198Z,2.30
2018-06-02T16:04:25.096Z,2.33
2018-06-02T16:06:54.961Z,2.50
2018-06-02T16:09:24.591Z,3.10
2018-06-02T16:11:54.533Z,5.50
2018-06-02T16:14:24.726Z,2.83
2018-06-02T16:16:55.116Z,2.83
2018-06-02T16:19:26.241Z,3.20
2018-06-02T16:21:56.632Z,3.23
2018-06-02T16:24:25.983Z,3.00
2018-06-02T16:26:55.947Z,3.20
2018-06-02T16:29:24.756Z,2.83
2018-06-02T16:31:53.665Z,3.00
2018-06-02T16:34:23.612Z,2.53
2018-06-02T16:36:52.245Z,3.00
2018-06-02T16:39:20.917Z,3.60
2018-06-02T16:41:49.847Z,4.00
2018-06-02T16:44:18.645Z,4.17
2018-06-02T16:46:48.381Z,4.53
2018-06-02T16:49:19.181Z,3.90
2018-06-02T16:51:48.716Z,3.57
2018-06-02T16:54:18.093Z,3.53
2018-06-02T16:56:46.890Z,3.83
2018-06-02T16:59:15.679Z,3.57
2018-06-02T17:01:44.382Z,3.90
2018-06-02T17:04:13.504Z,3.80
2018-06-02T17:06:42.228Z,3.40
2018-06-02T17:09:11.040Z,3.23
2018-06-02T17:11:39.741Z,3.40
2018-06-02T17:14:08.483Z,3.80
2018-06-02T17:16:38.391Z,3.80
2018-06-02T17:19:08.072Z,3.70
2018-06-02T17:21:36.949Z,3.80
2018-06-02T17:24:06.051Z,3.70
2018-06-02T17:26:34.670Z,3.73
2018-06-02T17:29:03.369Z,3.63
2018-06-02T17:31:32.176Z,4.13
2018-06-02T17:34:01.290Z,3.83
2018-06-02T17:36:30.187Z,3.67
2018-06-02T17:38:59.896Z,4.00
2018-06-02T17:41:29.411Z,3.90
2018-06-02T17:43:58.385Z,4.53
2018-06-02T17:46:27.142Z,4.10
2018-06-02T17:48:58.011Z,4.20
2018-06-02T17:51:28.476Z,3.67
2018-06-02T17:53:57.509Z,4.23
2018-06-02T17:56:26.420Z,4.33
2018-06-02T17:58:55.221Z,4.00
2018-06-02T18:01:24.067Z,4.20
2018-06-02T18:03:53.286Z,4.20
2018-06-02T18:06:22.609Z,4.20
2018-06-02T18:08:52.353Z,4.20
2018-06-02T18:11:21.425Z,3.97
2018-06-02T18:13:50.362Z,4.57
2018-06-02T18:16:20.290Z,3.63
2018-06-02T18:18:50.857Z,3.80
2018-06-02T18:21:21.110Z,4.10
2018-06-02T18:23:52.287Z,4.03
2018-06-02T18:26:23.071Z,4.33
2018-06-02T18:28:53.234Z,4.13
2018-06-02T18:31:22.239Z,4.40
2018-06-02T18:33:51.776Z,4.43
2018-06-02T18:36:20.697Z,3.80
2018-06-02T18:38:49.736Z,4.03
2018-06-02T18:41:19.895Z,3.90
2018-06-02T18:43:50.202Z,4.23
2018-06-02T18:46:19.224Z,4.63
2018-06-02T18:48:48.208Z,4.37
2018-06-02T18:51:17.845Z,4.13
2018-06-02T18:53:46.826Z,4.10
2018-06-02T18:56:15.847Z,4.57
2018-06-02T18:58:44.575Z,4.50
2018-06-02T19:01:13.526Z,4.70
2018-06-02T19:03:43.950Z,4.67
2018-06-02T19:06:12.846Z,4.80
2018-06-02T19:08:42.929Z,4.40
2018-06-02T19:11:12.802Z,4.87
2018-06-02T19:13:42.278Z,4.87
2018-06-02T19:16:11.329Z,4.23
2018-06-02T19:18:41.472Z,4.83
2018-06-02T19:21:10.488Z,4.90
2018-06-02T19:23:40.609Z,4.50
2018-06-02T19:26:10.453Z,4.43
2018-06-02T19:28:41.005Z,4.90
2018-06-02T19:31:09.879Z,4.27
2018-06-02T19:33:38.544Z,5.40
2018-06-02T19:36:08.429Z,5.00
2018-06-02T19:38:38.074Z,4.70
2018-06-02T19:41:08.655Z,4.93
2018-06-02T19:43:37.897Z,4.83
2018-06-02T19:46:06.563Z,4.77
2018-06-02T19:48:36.308Z,5.00
2018-06-02T19:51:05.838Z,5.03
2018-06-02T19:53:35.044Z,4.90
2018-06-02T19:56:03.896Z,4.77
2018-06-02T19:58:33.519Z,4.90
2018-06-02T20:01:02.240Z,4.87
2018-06-02T20:03:31.747Z,4.80
2018-06-02T20:06:01.071Z,4.80
2018-06-02T20:08:30.435Z,5.40
2018-06-02T20:10:59.590Z,5.37
2018-06-02T20:13:28.557Z,5.47
2018-06-02T20:15:57.551Z,5.57
2018-06-02T20:18:26.559Z,5.40
2018-06-02T20:20:55.540Z,4.93
2018-06-02T20:23:25.270Z,5.20
2018-06-02T20:25:55.028Z,5.67
2018-06-02T20:28:24.158Z,5.60
2018-06-02T20:30:53.359Z,5.63
2018-06-02T20:33:22.348Z,5.33
2018-06-02T20:35:52.862Z,5.40
2018-06-02T20:38:22.770Z,5.37
2018-06-02T20:40:51.580Z,4.80
2018-06-02T20:43:20.287Z,5.83
2018-06-02T20:45:49.399Z,5.73
2018-06-02T20:48:19.127Z,5.03
2018-06-02T20:50:48.391Z,6.03
2018-06-02T20:53:18.614Z,5.70
2018-06-02T20:55:48.767Z,5.17
2018-06-02T20:58:17.749Z,5.97
2018-06-02T21:00:46.866Z,5.27
2018-06-02T21:03:16.151Z,5.90
2018-06-02T21:05:46.965Z,5.77
2018-06-02T21:08:16.719Z,5.73
2018-06-02T21:10:45.640Z,5.67
2018-06-02T21:13:16.657Z,5.70
2018-06-02T21:15:45.518Z,5.77
2018-06-02T21:18:15.733Z,5.63
2018-06-02T21:20:46.022Z,5.90
2018-06-02T21:23:16.179Z,5.50
2018-06-02T21:25:44.897Z,5.53
2018-06-02T21:28:14.897Z,5.77
2018-06-02T21:30:46.233Z,5.03
2018-06-02T21:33:15.012Z,5.57
2018-06-02T21:35:45.193Z,5.47
2018-06-02T21:38:14.161Z,6.03
2018-06-02T21:40:43.302Z,6.10
2018-06-02T21:43:12.989Z,5.70
2018-06-02T21:45:41.807Z,5.87
2018-06-02T21:48:11.501Z,5.60
2018-06-02T21:50:40.973Z,5.67
2018-06-02T21:53:09.992Z,5.70
2018-06-02T21:55:39.212Z,6.20
2018-06-02T21:58:09.329Z,6.27
2018-06-02T22:00:38.781Z,7.00
2018-06-02T22:03:08.494Z,7.27
2018-06-02T22:05:38.513Z,6.50
2018-06-02T22:08:08.017Z,8.37
2018-06-02T22:10:38.924Z,6.83
2018-06-02T22:13:07.939Z,6.50
2018-06-02T22:15:36.879Z,5.83
2018-06-02T22:18:06.858Z,5.57
2018-06-02T22:20:36.517Z,5.77
2018-06-02T22:23:06.545Z,5.90
2018-06-02T22:25:36.773Z,5.50
2018-06-02T22:28:06.795Z,6.03
2018-06-02T22:30:36.450Z,5.90
2018-06-02T22:33:05.167Z,6.10
2018-06-02T22:35:34.898Z,5.83
2018-06-02T22:38:04.401Z,5.73
2018-06-02T22:40:34.259Z,5.97
2018-06-02T22:43:04.698Z,5.97
2018-06-02T22:45:33.466Z,6.60
2018-06-02T22:48:03.865Z,6.27
2018-06-02T22:50:33.965Z,6.10
2018-06-02T22:53:04.162Z,7.37
2018-06-02T22:55:33.037Z,7.57
2018-06-02T22:58:02.010Z,6.80
2018-06-02T23:00:31.201Z,6.00
2018-06-02T23:03:01.580Z,5.63
2018-06-02T23:05:31.472Z,6.40
2018-06-02T23:08:00.889Z,6.27
2018-06-02T23:10:30.525Z,6.73
2018-06-02T23:12:59.497Z,6.33
2018-06-02T23:15:28.312Z,6.27
2018-06-02T23:17:58.618Z,6.37
2018-06-02T23:20:28.485Z,6.43
2018-06-02T23:22:58.357Z,6.53
2018-06-02T23:25:28.189Z,6.67
2018-06-02T23:27:56.943Z,6.53
2018-06-02T23:30:25.795Z,6.73
2018-06-02T23:32:54.525Z,8.80
2018-06-02T23:35:23.336Z,8.33
2018-06-02T23:37:52.067Z,8.90
2018-06-02T23:40:20.854Z,8.83
2018-06-02T23:42:49.860Z,8.13
2018-06-02T23:45:18.840Z,7.83
2018-06-02T23:47:49.053Z,7.40
2018-06-02T23:50:18.443Z,7.47
2018-06-02T23:52:47.250Z,7.70
2018-06-02T23:55:15.953Z,7.27
2018-06-02T23:57:44.509Z,7.23
